createdAt,value
2022-12-08T00:05:04.710Z,62.40
2022-12-08T00:10:39.648Z,62.60
2022-12-08T00:15:33.254Z,62.24
2022-12-08T00:20:38.113Z,62.05
2022-12-08T00:25:41.473Z,62.00
2022-12-08T00:30:45.445Z,62.79
2022-12-08T00:35:50.458Z,62.40
2022-12-08T00:40:53.928Z,61.70
2022-12-08T00:45:57.469Z,62.19
2022-12-08T00:51:02.495Z,61.62
2022-12-08T00:56:06.017Z,61.71
2022-12-08T01:01:12.775Z,62.46
2022-12-08T01:06:17.983Z,61.89
2022-12-08T01:11:21.628Z,61.47
2022-12-08T01:16:26.875Z,60.78
2022-12-08T01:21:31.799Z,62.50
2022-12-08T01:26:35.306Z,60.86
2022-12-08T01:31:38.819Z,61.11
2022-12-08T01:36:44.698Z,60.43
2022-12-08T01:41:48.860Z,61.68
2022-12-08T01:46:55.011Z,61.23
2022-12-08T01:52:04.370Z,60.99
2022-12-08T01:57:11.691Z,60.93
2022-12-08T02:02:15.482Z,61.99
2022-12-08T02:07:20.368Z,61.44
2022-12-08T02:12:23.884Z,60.99
2022-12-08T02:17:59.765Z,62.08
2022-12-08T02:23:12.741Z,61.05
2022-12-08T02:28:39.466Z,61.11
2022-12-08T02:34:14.278Z,61.13
2022-12-08T02:39:29.995Z,61.35
2022-12-08T02:44:38.249Z,61.92
2022-12-08T02:49:43.558Z,61.58
2022-12-08T02:54:52.038Z,61.21
2022-12-08T03:00:07.768Z,61.73
2022-12-08T03:05:23.276Z,61.44
2022-12-08T03:10:34.294Z,61.35
2022-12-08T03:15:39.976Z,60.77
2022-12-08T03:20:46.518Z,61.33
2022-12-08T03:25:55.376Z,60.83
2022-12-08T03:31:03.725Z,62.14
2022-12-08T03:36:11.011Z,62.29
2022-12-08T03:41:20.616Z,61.54
2022-12-08T03:51:29.022Z,60.75
2022-12-08T03:56:34.939Z,62.38
2022-12-08T04:01:38.750Z,61.77
2022-12-08T04:06:43.619Z,61.97
2022-12-08T04:11:47.149Z,61.87
2022-12-08T04:16:50.448Z,62.13
2022-12-08T04:21:55.185Z,62.55
2022-12-08T04:26:58.515Z,63.11
2022-12-08T04:32:01.947Z,63.51
2022-12-08T04:37:06.780Z,62.90
2022-12-08T04:42:10.109Z,63.47
2022-12-08T04:47:13.556Z,63.03
2022-12-08T04:52:18.483Z,64.04
2022-12-08T04:57:22.095Z,63.61
2022-12-08T05:02:25.658Z,63.53
2022-12-08T05:07:30.640Z,64.52
2022-12-08T05:12:34.630Z,63.37
2022-12-08T05:17:38.111Z,65.23
2022-12-08T05:22:42.933Z,64.51
2022-12-08T05:27:46.302Z,64.12
2022-12-08T05:32:49.678Z,64.51
2022-12-08T05:37:57.287Z,65.41
2022-12-08T05:43:00.767Z,64.55
2022-12-08T05:48:04.188Z,65.48
2022-12-08T05:53:08.958Z,64.32
2022-12-08T05:58:15.050Z,64.29
2022-12-08T06:03:20.883Z,64.64
2022-12-08T06:08:25.986Z,64.80
2022-12-08T06:13:29.455Z,63.62
2022-12-08T06:18:33.135Z,65.62
2022-12-08T06:23:38.354Z,65.33
2022-12-08T06:28:42.507Z,64.91
2022-12-08T06:33:46.563Z,64.29
2022-12-08T06:38:51.610Z,63.81
2022-12-08T06:43:57.492Z,64.37
2022-12-08T06:49:00.811Z,63.72
2022-12-08T06:54:05.867Z,63.42
2022-12-08T06:59:09.483Z,63.69
2022-12-08T07:04:12.965Z,63.00
2022-12-08T07:09:17.751Z,62.50
2022-12-08T07:14:24.931Z,61.98
2022-12-08T07:19:28.633Z,62.07
2022-12-08T07:24:33.808Z,61.21
2022-12-08T07:29:37.241Z,61.17
2022-12-08T07:34:40.725Z,61.11
2022-12-08T07:39:45.490Z,61.86
2022-12-08T07:44:48.935Z,61.28
2022-12-08T07:49:52.355Z,61.59
2022-12-08T07:54:57.383Z,60.39
2022-12-08T08:00:00.739Z,59.30
2022-12-08T08:05:04.496Z,59.19
2022-12-08T08:10:10.964Z,60.10
2022-12-08T08:15:14.559Z,60.38
2022-12-08T08:20:17.976Z,59.50
2022-12-08T08:25:23.844Z,59.59
2022-12-08T08:30:27.258Z,60.08
2022-12-08T08:35:30.864Z,59.43
2022-12-08T08:40:35.867Z,60.20
2022-12-08T08:45:39.317Z,59.75
2022-12-08T08:50:42.795Z,60.05
2022-12-08T08:55:47.878Z,60.08
2022-12-08T09:00:51.431Z,60.15
2022-12-08T09:05:56.423Z,60.21
2022-12-08T09:11:01.412Z,60.04
2022-12-08T09:16:05.915Z,59.63
2022-12-08T09:21:11.715Z,60.14
2022-12-08T09:26:16.623Z,60.33
2022-12-08T09:31:21.232Z,59.71
2022-12-08T09:36:24.727Z,60.16
2022-12-08T09:41:40.308Z,60.18
2022-12-08T09:46:45.725Z,59.82
2022-12-08T09:51:49.547Z,60.88
2022-12-08T09:56:59.944Z,60.58
2022-12-08T10:02:03.922Z,59.74
2022-12-08T10:07:16.619Z,59.66
2022-12-08T10:12:27.578Z,60.67
2022-12-08T10:17:38.102Z,61.14
2022-12-08T10:22:44.923Z,61.12
2022-12-08T10:27:52.719Z,61.48
2022-12-08T10:32:56.524Z,61.33
2022-12-08T10:38:01.760Z,61.14
2022-12-08T10:43:07.160Z,61.29
2022-12-08T10:48:17.922Z,61.72
2022-12-08T10:53:24.637Z,61.59
2022-12-08T10:58:34.141Z,62.89
2022-12-08T11:03:45.903Z,62.66
2022-12-08T11:08:52.718Z,62.71
2022-12-08T11:13:57.963Z,61.92
2022-12-08T11:19:07.462Z,62.18
2022-12-08T11:24:24.243Z,62.24
2022-12-08T11:29:30.286Z,62.64
2022-12-08T11:34:38.533Z,61.95
2022-12-08T11:39:46.040Z,62.69
2022-12-08T11:44:55.979Z,62.56
2022-12-08T11:50:06.032Z,62.73
2022-12-08T11:55:26.011Z,63.46
2022-12-08T12:00:30.980Z,63.24
2022-12-08T12:11:38.287Z,63.00
2022-12-08T12:22:25.209Z,62.46
2022-12-08T12:27:31.397Z,63.64
2022-12-08T12:32:47.138Z,63.10
2022-12-08T12:37:50.986Z,62.29
2022-12-08T12:43:15.888Z,63.62
2022-12-08T12:48:25.980Z,63.19
2022-12-08T12:53:52.321Z,64.44
2022-12-08T12:58:56.020Z,63.04
2022-12-08T13:04:08.674Z,62.69
2022-12-08T13:09:30.443Z,63.38
2022-12-08T13:14:37.445Z,62.90
2022-12-08T13:19:48.806Z,63.09
2022-12-08T13:24:54.841Z,63.27
2022-12-08T13:30:35.421Z,62.53
2022-12-08T13:35:46.043Z,62.24
2022-12-08T13:40:50.484Z,62.69
2022-12-08T13:57:10.552Z,63.71
2022-12-08T14:02:19.503Z,63.70
2022-12-08T14:07:25.282Z,62.96
2022-12-08T14:12:29.836Z,63.08
2022-12-08T14:17:34.131Z,63.29
2022-12-08T14:22:40.804Z,63.50
2022-12-08T14:27:44.590Z,63.07
2022-12-08T14:32:50.850Z,62.78
2022-12-08T14:37:58.838Z,63.60
2022-12-08T14:43:16.814Z,62.85
2022-12-08T14:48:25.491Z,63.04
2022-12-08T14:53:40.841Z,62.76
2022-12-08T14:58:44.481Z,62.58
2022-12-08T15:03:51.259Z,63.21
2022-12-08T15:09:00.039Z,62.44
2022-12-08T15:14:03.453Z,62.62
2022-12-08T15:19:17.767Z,62.95
2022-12-08T15:24:25.170Z,63.32
2022-12-08T15:29:31.159Z,63.17
2022-12-08T15:34:34.502Z,62.95
2022-12-08T15:39:40.079Z,64.08
2022-12-08T15:44:43.493Z,63.71
2022-12-08T15:49:47.755Z,64.01
2022-12-08T15:54:52.713Z,63.18
2022-12-08T15:59:56.307Z,63.78
2022-12-08T16:05:33.839Z,64.71
2022-12-08T16:10:32.212Z,64.18
2022-12-08T16:15:57.084Z,65.20
2022-12-08T16:21:17.004Z,65.17
2022-12-08T16:27:28.554Z,65.07
2022-12-08T16:31:53.153Z,65.60
2022-12-08T16:36:56.807Z,64.45
2022-12-08T16:42:15.598Z,64.88
2022-12-08T16:47:18.931Z,64.74
2022-12-08T16:52:22.464Z,64.41
2022-12-08T16:57:27.643Z,64.32
2022-12-08T17:02:31.206Z,64.45
2022-12-08T17:07:36.011Z,65.10
2022-12-08T17:12:40.952Z,64.49
2022-12-08T17:17:44.737Z,65.30
2022-12-08T17:22:48.667Z,64.20
2022-12-08T17:27:53.595Z,64.88
2022-12-08T17:32:56.931Z,64.31
2022-12-08T17:38:00.381Z,64.60
2022-12-08T17:43:05.777Z,65.22
2022-12-08T17:48:09.528Z,65.05
2022-12-08T17:53:13.327Z,65.95
2022-12-08T17:58:18.189Z,65.08
2022-12-08T18:03:21.448Z,64.67
2022-12-08T18:08:24.844Z,65.62
2022-12-08T18:13:29.637Z,65.09
2022-12-08T18:18:32.796Z,65.68
2022-12-08T18:23:38.101Z,65.49
2022-12-08T18:28:43.547Z,65.37
2022-12-08T18:33:48.066Z,65.77
2022-12-08T18:38:51.650Z,65.30
2022-12-08T18:43:57.594Z,65.63
2022-12-08T18:49:01.134Z,65.27
2022-12-08T18:54:04.575Z,65.22
2022-12-08T18:59:12.389Z,65.10
2022-12-08T19:04:34.693Z,64.53
2022-12-08T19:09:40.170Z,65.14
2022-12-08T19:14:45.056Z,65.20
2022-12-08T19:19:48.678Z,64.71
2022-12-08T19:24:52.208Z,64.83
2022-12-08T19:29:57.647Z,64.95
2022-12-08T19:35:01.260Z,64.94
2022-12-08T19:40:22.902Z,64.95
2022-12-08T19:45:28.071Z,65.28
2022-12-08T19:50:37.542Z,64.31
2022-12-08T19:55:41.477Z,64.97
2022-12-08T20:00:46.858Z,64.99
2022-12-08T20:05:52.895Z,65.20
2022-12-08T20:10:59.148Z,65.71
2022-12-08T20:16:03.945Z,65.87
2022-12-08T20:21:08.174Z,66.07
2022-12-08T20:26:14.151Z,65.52
2022-12-08T20:31:21.116Z,66.00
2022-12-08T20:36:25.043Z,67.14
2022-12-08T20:41:28.365Z,65.67
2022-12-08T20:46:33.226Z,65.53
2022-12-08T20:51:36.717Z,65.40
2022-12-08T20:56:47.919Z,65.13
2022-12-08T21:01:54.009Z,65.19
2022-12-08T21:06:57.625Z,65.19
2022-12-08T21:12:01.095Z,64.85
2022-12-08T21:17:06.134Z,65.58
2022-12-08T21:22:10.147Z,65.09
2022-12-08T21:27:13.755Z,65.20
2022-12-08T21:32:18.784Z,65.54
2022-12-08T21:37:22.522Z,64.85
2022-12-08T21:42:43.464Z,64.65
2022-12-08T21:47:50.004Z,64.45
2022-12-08T21:52:53.537Z,64.74
2022-12-08T21:57:57.324Z,64.85
2022-12-08T22:03:02.742Z,64.86
2022-12-08T22:08:06.874Z,65.21
2022-12-08T22:13:10.540Z,66.44
2022-12-08T22:18:15.385Z,65.31
2022-12-08T22:23:19.102Z,65.14
2022-12-08T22:28:22.685Z,65.22
2022-12-08T22:33:29.451Z,64.92
2022-12-08T22:38:32.988Z,65.17
2022-12-08T22:43:37.409Z,65.33
2022-12-08T22:48:42.264Z,65.82
2022-12-08T22:53:46.284Z,65.42
2022-12-08T22:58:49.933Z,65.47
2022-12-08T23:03:55.182Z,66.12
2022-12-08T23:08:59.423Z,65.85
2022-12-08T23:14:03.037Z,65.44
2022-12-08T23:19:10.033Z,66.33
2022-12-08T23:24:13.497Z,66.42
2022-12-08T23:29:17.537Z,66.25
2022-12-08T23:34:22.262Z,67.17
2022-12-08T23:39:25.674Z,66.50
2022-12-08T23:44:29.157Z,66.23
2022-12-08T23:49:34.066Z,66.42
2022-12-08T23:54:37.452Z,66.95
2022-12-08T23:59:41.010Z,66.99
